Time;durP1;ratioP1;P1;durP2;ratioP2;P2;SDS_P1;SDS_P2;PMS_P1;PMS_P2;Temp;Humidity;BMP_temperature;BMP_pressure;BME280_temperature;BME280_humidity;BME280_pressure;Samples;Min_cycle;Max_cycle;Signal;HPM_P1;HPM_P2
2022/10/05 00:02:20;;;;;;;8.60;3.95;;;13.30;99.50;;;;;;5001914;28;20351;-74
2022/10/05 00:04:48;;;;;;;5.05;3.55;;;13.30;99.50;;;;;;4998913;28;20028;-74
2022/10/05 00:07:18;;;;;;;7.28;3.70;;;13.30;99.50;;;;;;5008190;28;20630;-73
2022/10/05 00:09:49;;;;;;;5.72;3.55;;;13.30;99.50;;;;;;5001380;28;20045;-73
2022/10/05 00:12:18;;;;;;;6.63;3.85;;;13.30;99.50;;;;;;5008310;28;20052;-73
2022/10/05 00:14:48;;;;;;;7.03;3.70;;;13.30;99.60;;;;;;5001016;28;20492;-73
2022/10/05 00:17:22;;;;;;;6.07;3.83;;;13.20;99.60;;;;;;4995110;28;20049;-73
2022/10/05 00:19:52;;;;;;;6.90;3.58;;;13.20;99.70;;;;;;4995411;28;20124;-74
2022/10/05 00:22:36;;;;;;;5.90;3.88;;;13.20;99.60;;;;;;4997619;28;20030;-74
2022/10/05 00:25:12;;;;;;;9.15;4.82;;;13.10;99.70;;;;;;4995035;28;20042;-74
2022/10/05 00:27:37;;;;;;;6.38;4.05;;;13.10;99.70;;;;;;4994096;28;20503;-73
2022/10/05 00:30:16;;;;;;;6.13;4.30;;;13.10;99.70;;;;;;4978274;28;20101;-73
2022/10/05 00:32:42;;;;;;;4.30;3.17;;;13.10;99.80;;;;;;5012398;28;20516;-73
2022/10/05 00:35:10;;;;;;;7.72;3.92;;;13.10;99.70;;;;;;5008731;28;20030;-73
2022/10/05 00:37:36;;;;;;;6.40;3.90;;;13.10;99.80;;;;;;5012757;28;20030;-73
2022/10/05 00:40:08;;;;;;;6.05;4.25;;;13.10;99.80;;;;;;5003712;28;20014;-73
2022/10/05 00:43:01;;;;;;;5.97;3.80;;;13.10;99.80;;;;;;5032326;28;20032;-73
2022/10/05 00:45:38;;;;;;;6.85;3.55;;;13.10;99.90;;;;;;4996246;28;20053;-73
2022/10/05 00:48:16;;;;;;;5.32;4.35;;;13.00;99.80;;;;;;5012276;28;20096;-73
2022/10/05 00:51:06;;;;;;;6.45;4.28;;;13.00;99.90;;;;;;4996087;28;20035;-73
2022/10/05 00:53:57;;;;;;;7.38;4.20;;;13.00;99.90;;;;;;4993804;28;20026;-73
2022/10/05 00:56:41;;;;;;;5.15;3.50;;;13.00;99.90;;;;;;5004189;28;20046;-74
2022/10/05 00:59:11;;;;;;;;;;;13.00;99.90;;;;;;5004721;28;20046;-72
2022/10/05 01:02:09;;;;;;;6.93;3.72;;;13.00;99.70;;;;;;5012747;28;19991;-73
2022/10/05 01:04:55;;;;;;;6.65;4.10;;;12.90;99.90;;;;;;5007663;28;20534;-72
2022/10/05 01:07:35;;;;;;;5.40;3.40;;;12.90;99.90;;;;;;4993261;28;20034;-73
2022/10/05 01:10:28;;;;;;;6.05;3.33;;;12.90;99.90;;;;;;5003292;28;20022;-73
2022/10/05 01:13:15;;;;;;;7.05;3.72;;;12.90;99.90;;;;;;5009869;28;20141;-73
2022/10/05 01:15:49;;;;;;;5.95;3.47;;;12.90;99.90;;;;;;4999557;28;20030;-73
2022/10/05 01:18:24;;;;;;;;;;;12.90;99.90;;;;;;4997625;28;20104;-73
2022/10/05 01:21:05;;;;;;;5.40;3.05;;;12.90;99.80;;;;;;4999993;28;20329;-74
2022/10/05 01:23:39;;;;;;;6.63;3.58;;;12.90;99.90;;;;;;5012156;28;20030;-73
2022/10/05 01:26:24;;;;;;;6.75;3.40;;;12.90;99.90;;;;;;4991888;28;20049;-73
2022/10/05 01:29:21;;;;;;;8.45;3.72;;;13.00;99.90;;;;;;5011547;28;20072;-74
2022/10/05 01:32:22;;;;;;;5.15;3.25;;;12.90;99.90;;;;;;5006195;28;20042;-74
2022/10/05 01:35:09;;;;;;;6.22;3.47;;;12.90;99.90;;;;;;4993217;28;20034;-73
2022/10/05 01:37:56;;;;;;;6.38;3.63;;;13.00;99.90;;;;;;4986776;28;20049;-73
2022/10/05 01:40:27;;;;;;;6.78;3.80;;;13.00;99.90;;;;;;5014964;28;20014;-74
2022/10/05 01:43:18;;;;;;;6.93;3.70;;;12.90;99.90;;;;;;5010929;28;20026;-74
2022/10/05 01:45:59;;;;;;;5.75;3.35;;;12.90;99.90;;;;;;4973074;28;20058;-74
2022/10/05 01:48:50;;;;;;;5.68;3.40;;;12.90;99.90;;;;;;5001297;28;20034;-74
2022/10/05 01:51:16;;;;;;;6.95;3.55;;;12.90;99.90;;;;;;4995392;28;20038;-74
2022/10/05 01:54:04;;;;;;;9.63;3.47;;;12.90;99.90;;;;;;4999399;28;20014;-74
2022/10/05 01:56:48;;;;;;;7.10;3.70;;;12.90;99.90;;;;;;4994313;28;20062;-74
2022/10/05 01:59:35;;;;;;;5.47;3.78;;;12.90;99.90;;;;;;4994213;28;20033;-74
2022/10/05 02:02:08;;;;;;;5.93;3.75;;;12.90;99.90;;;;;;5011677;28;20037;-74
2022/10/05 02:04:47;;;;;;;6.28;3.33;;;12.80;99.80;;;;;;5014557;28;20030;-74
2022/10/05 02:07:28;;;;;;;7.40;3.50;;;12.80;99.90;;;;;;5005545;28;20036;-74
2022/10/05 02:10:03;;;;;;;5.75;4.00;;;12.80;99.90;;;;;;5003905;28;20042;-75
2022/10/05 02:12:31;;;;;;;;;;;12.80;99.90;;;;;;5005058;28;20030;-75
2022/10/05 02:15:06;;;;;;;5.65;3.47;;;12.80;99.80;;;;;;4996820;28;20385;-73
2022/10/05 02:17:39;;;;;;;7.03;3.67;;;12.70;99.90;;;;;;5000523;28;20105;-73
2022/10/05 02:20:09;;;;;;;8.10;3.92;;;12.70;99.90;;;;;;4999473;28;20076;-74
2022/10/05 02:22:41;;;;;;;5.15;3.70;;;12.70;99.90;;;;;;4995948;28;20161;-74
2022/10/05 02:25:20;;;;;;;5.95;3.80;;;12.70;99.90;;;;;;4992875;28;20029;-73
2022/10/05 02:27:52;;;;;;;6.43;3.65;;;12.70;99.90;;;;;;5007215;28;20034;-72
2022/10/05 02:30:18;;;;;;;6.50;3.78;;;12.70;99.90;;;;;;5003054;28;20552;-73
2022/10/05 02:32:51;;;;;;;7.30;4.88;;;12.70;99.90;;;;;;5009400;28;20038;-73
2022/10/05 02:35:20;;;;;;;8.57;3.67;;;12.60;99.90;;;;;;4986662;28;20087;-73
2022/10/05 02:38:25;;;;;;;7.88;4.03;;;12.60;99.90;;;;;;5010456;28;20027;-73
2022/10/05 02:41:07;;;;;;;6.15;3.53;;;12.60;99.90;;;;;;5004132;28;20179;-73
2022/10/05 02:43:52;;;;;;;6.28;3.65;;;12.50;99.90;;;;;;5014732;28;20041;-74
2022/10/05 02:46:26;;;;;;;5.90;3.60;;;12.50;99.90;;;;;;5007070;28;20042;-74
2022/10/05 02:49:07;;;;;;;7.37;4.03;;;12.50;99.90;;;;;;5014886;28;20030;-74
2022/10/05 02:51:49;;;;;;;5.78;4.10;;;12.50;99.90;;;;;;5001035;28;20672;-74
2022/10/05 02:54:44;;;;;;;5.55;3.83;;;12.50;99.90;;;;;;5000269;28;20049;-74
2022/10/05 02:57:34;;;;;;;5.33;3.57;;;12.50;99.90;;;;;;4973004;28;20390;-73
2022/10/05 03:00:14;;;;;;;5.78;3.95;;;12.50;99.90;;;;;;4971926;28;20302;-73
2022/10/05 03:03:10;;;;;;;7.45;3.75;;;12.50;99.90;;;;;;4961581;28;20063;-74
2022/10/05 03:05:42;;;;;;;5.78;3.53;;;12.50;99.90;;;;;;4970588;28;20118;-73
2022/10/05 03:08:25;;;;;;;5.53;3.40;;;12.50;99.90;;;;;;4966636;28;20049;-73
2022/10/05 03:11:13;;;;;;;5.20;3.53;;;12.50;99.90;;;;;;4973728;28;20038;-73
2022/10/05 03:13:46;;;;;;;7.18;3.70;;;12.50;99.90;;;;;;4984687;28;20513;-75
2022/10/05 03:16:31;;;;;;;5.95;3.97;;;12.40;99.90;;;;;;4970645;28;20057;-74
2022/10/05 03:19:12;;;;;;;;;;;12.40;99.90;;;;;;4956659;29;20036;-74
2022/10/05 03:21:58;;;;;;;6.20;3.75;;;12.40;99.90;;;;;;4973146;28;19960;-74
2022/10/05 03:24:48;;;;;;;10.52;3.88;;;12.40;99.90;;;;;;4969307;28;20034;-74
2022/10/05 03:27:39;;;;;;;5.20;3.50;;;12.40;99.90;;;;;;4976334;28;20313;-75
2022/10/05 03:30:20;;;;;;;5.43;3.15;;;12.40;99.90;;;;;;4972516;28;20057;-74
2022/10/05 03:33:07;;;;;;;4.72;3.50;;;12.40;99.90;;;;;;4984216;28;20043;-74
2022/10/05 03:36:09;;;;;;;5.72;3.85;;;12.50;99.90;;;;;;4971324;28;20026;-75
2022/10/05 03:38:56;;;;;;;6.28;3.90;;;12.50;99.90;;;;;;4958065;28;20110;-75
2022/10/05 03:41:51;;;;;;;7.22;4.47;;;12.50;99.90;;;;;;4973037;28;20105;-74
2022/10/05 03:44:24;;;;;;;5.55;3.85;;;12.50;99.90;;;;;;4966233;28;20193;-74
2022/10/05 03:47:01;;;;;;;9.45;4.65;;;12.50;99.90;;;;;;4970291;28;20034;-74
2022/10/05 03:49:39;;;;;;;6.57;4.43;;;12.60;99.90;;;;;;4970730;28;20037;-74
2022/10/05 03:52:11;;;;;;;5.32;3.65;;;12.60;99.90;;;;;;4964100;28;20123;-74
2022/10/05 03:54:47;;;;;;;7.22;4.05;;;12.50;99.90;;;;;;4969899;28;20038;-74
2022/10/05 03:57:17;;;;;;;8.13;4.60;;;12.60;99.90;;;;;;5005867;28;20030;-74
2022/10/05 03:59:58;;;;;;;7.22;4.15;;;12.60;99.90;;;;;;5013966;28;20057;-74
2022/10/05 04:02:29;;;;;;;5.78;3.65;;;12.60;99.90;;;;;;4998288;28;20117;-74
2022/10/05 04:05:13;;;;;;;6.40;4.28;;;12.60;99.90;;;;;;5011921;28;20165;-74
2022/10/05 04:07:46;;;;;;;4.97;3.63;;;12.60;99.90;;;;;;5006191;28;20054;-74
2022/10/05 04:10:34;;;;;;;9.57;4.22;;;12.60;99.90;;;;;;5011140;28;20045;-74
2022/10/05 04:13:23;;;;;;;6.70;3.90;;;12.70;99.90;;;;;;5009025;28;20448;-74
2022/10/05 04:16:10;;;;;;;5.82;3.58;;;12.70;99.90;;;;;;4981707;28;20060;-74
2022/10/05 04:18:42;;;;;;;5.97;4.13;;;12.70;99.90;;;;;;4997030;28;20385;-74
2022/10/05 04:21:23;;;;;;;6.70;3.47;;;12.70;99.90;;;;;;5007157;28;20029;-74
2022/10/05 04:24:04;;;;;;;6.65;3.83;;;12.70;99.90;;;;;;4999078;28;20034;-73
2022/10/05 04:26:47;;;;;;;7.75;3.67;;;12.70;99.90;;;;;;4989536;28;20026;-74
2022/10/05 04:29:36;;;;;;;8.80;4.13;;;12.70;99.90;;;;;;5011524;28;20034;-74
2022/10/05 04:32:14;;;;;;;7.18;3.65;;;12.70;99.90;;;;;;5004032;28;20172;-73
2022/10/05 04:34:58;;;;;;;6.95;3.45;;;12.70;99.90;;;;;;4999527;28;20484;-75
2022/10/05 04:37:42;;;;;;;5.15;3.70;;;12.70;99.90;;;;;;4995050;28;20104;-74
2022/10/05 04:40:29;;;;;;;7.63;3.83;;;12.70;99.90;;;;;;5014723;28;20038;-74
2022/10/05 04:43:19;;;;;;;10.95;5.82;;;12.70;99.90;;;;;;5007749;28;20034;-74
2022/10/05 04:45:54;;;;;;;6.50;3.42;;;12.70;99.90;;;;;;5010860;28;20026;-74
2022/10/05 04:48:34;;;;;;;6.47;3.88;;;12.70;99.90;;;;;;5005583;28;20367;-74
2022/10/05 04:51:10;;;;;;;6.63;3.88;;;12.70;99.90;;;;;;5001366;28;20064;-73
2022/10/05 04:53:51;;;;;;;10.95;4.07;;;12.70;99.90;;;;;;5026876;28;20563;-73
2022/10/05 04:56:39;;;;;;;5.72;3.97;;;12.70;99.90;;;;;;5023259;28;20493;-73
2022/10/05 04:59:23;;;;;;;8.07;4.45;;;12.70;99.90;;;;;;5000304;28;20441;-73
2022/10/05 05:02:18;;;;;;;8.07;4.65;;;12.80;99.90;;;;;;5002722;28;20053;-73
2022/10/05 05:05:24;;;;;;;7.27;3.87;;;12.80;99.90;;;;;;4996777;28;20398;-74
2022/10/05 05:07:58;;;;;;;;;;;12.70;99.90;;;;;;4996657;28;20676;-73
2022/10/05 05:10:42;;;;;;;6.95;4.00;;;12.80;99.90;;;;;;5011346;28;19973;-74
2022/10/05 05:13:25;;;;;;;6.17;4.40;;;12.70;99.90;;;;;;5003255;28;20375;-73
2022/10/05 05:16:16;;;;;;;5.50;3.80;;;12.70;99.90;;;;;;5009916;28;20022;-74
2022/10/05 05:18:57;;;;;;;5.43;4.45;;;12.60;99.90;;;;;;4997765;28;20370;-74
2022/10/05 05:21:47;;;;;;;7.65;4.68;;;12.60;99.90;;;;;;5006144;28;20037;-74
2022/10/05 05:24:15;;;;;;;8.80;4.32;;;12.60;99.90;;;;;;4997840;28;20511;-74
2022/10/05 05:27:04;;;;;;;6.95;4.63;;;12.60;99.90;;;;;;5001422;28;20035;-73
2022/10/05 05:29:52;;;;;;;8.52;4.47;;;12.60;99.90;;;;;;4993103;28;21785;-74
2022/10/05 05:32:36;;;;;;;6.57;3.92;;;12.70;99.90;;;;;;4994861;28;20054;-73
2022/10/05 05:35:35;;;;;;;7.05;4.20;;;12.70;99.90;;;;;;4999472;28;20482;-73
2022/10/05 05:38:34;;;;;;;9.05;4.20;;;12.70;99.90;;;;;;4983290;28;20030;-73
2022/10/05 05:41:11;;;;;;;8.00;4.38;;;12.70;99.90;;;;;;4993419;28;20489;-73
2022/10/05 05:44:04;;;;;;;8.35;4.28;;;12.70;99.90;;;;;;5009605;28;20034;-74
2022/10/05 05:46:36;;;;;;;7.63;4.50;;;12.70;99.90;;;;;;5010511;28;20481;-73
2022/10/05 05:49:15;;;;;;;8.63;4.45;;;12.80;99.90;;;;;;4990731;28;20037;-73
2022/10/05 05:52:20;;;;;;;8.00;4.00;;;12.70;99.90;;;;;;4989493;28;20422;-73
2022/10/05 05:54:57;;;;;;;8.15;3.30;;;12.80;99.90;;;;;;5009219;28;20033;-73
2022/10/05 05:57:33;;;;;;;6.75;4.22;;;12.80;99.90;;;;;;5011832;28;20623;-73
2022/10/05 06:00:04;;;;;;;7.28;4.25;;;12.80;99.90;;;;;;5007701;28;20034;-73
2022/10/05 06:02:39;;;;;;;6.13;4.28;;;12.80;99.90;;;;;;4996597;28;20022;-73
2022/10/05 06:05:30;;;;;;;9.65;4.63;;;12.90;99.90;;;;;;4999553;28;20076;-72
2022/10/05 06:08:00;;;;;;;8.02;4.00;;;12.90;99.90;;;;;;5013249;28;20018;-72
2022/10/05 06:10:42;;;;;;;7.88;3.90;;;12.90;99.90;;;;;;4997854;28;20128;-73
2022/10/05 06:13:36;;;;;;;9.13;3.92;;;13.00;99.90;;;;;;4993334;28;20088;-73
2022/10/05 06:16:34;;;;;;;7.00;4.07;;;13.00;99.90;;;;;;4990513;28;20034;-73
2022/10/05 06:19:10;;;;;;;8.65;4.40;;;13.00;99.90;;;;;;4993520;28;20040;-73
2022/10/05 06:22:02;;;;;;;6.80;3.92;;;13.10;99.90;;;;;;4996184;28;20112;-73
2022/10/05 06:24:51;;;;;;;6.38;3.72;;;13.10;99.90;;;;;;4993532;28;20037;-75
2022/10/05 06:27:24;;;;;;;7.30;3.85;;;13.10;99.90;;;;;;5002106;28;20026;-73
2022/10/05 06:30:16;;;;;;;7.45;3.60;;;13.20;99.90;;;;;;5001339;28;20030;-73
2022/10/05 06:33:09;;;;;;;9.75;3.75;;;13.20;99.90;;;;;;4993206;28;20045;-72
2022/10/05 06:35:35;;;;;;;5.35;3.70;;;13.30;99.90;;;;;;5005144;28;20048;-72
2022/10/05 06:38:13;;;;;;;6.28;3.67;;;13.30;99.90;;;;;;4999548;28;20085;-71
2022/10/05 06:40:59;;;;;;;6.20;3.75;;;13.30;99.90;;;;;;5002210;28;20026;-72
2022/10/05 06:43:47;;;;;;;7.07;4.00;;;13.40;99.90;;;;;;4986395;28;20026;-78
2022/10/05 06:46:32;;;;;;;9.82;4.20;;;13.50;99.90;;;;;;5011646;28;20040;-80
2022/10/05 06:49:30;;;;;;;6.00;4.40;;;13.50;99.90;;;;;;5007623;28;20038;-78
2022/10/05 06:52:31;;;;;;;5.45;3.45;;;13.60;99.90;;;;;;5000226;28;20042;-76
2022/10/05 06:55:38;;;;;;;13.55;4.35;;;13.60;99.90;;;;;;4972810;28;20033;-75
2022/10/05 06:58:15;;;;;;;6.80;3.90;;;13.70;99.90;;;;;;4927052;29;20044;-76
2022/10/05 07:00:57;;;;;;;6.35;3.95;;;13.70;99.90;;;;;;4992802;28;20037;-77
2022/10/05 07:04:15;;;;;;;6.97;4.10;;;13.80;99.90;;;;;;5013803;28;20037;-77
2022/10/05 07:06:51;;;;;;;7.25;3.63;;;13.90;99.90;;;;;;4957468;28;20037;-77
2022/10/05 07:09:36;;;;;;;6.05;4.07;;;14.00;99.90;;;;;;5013514;28;20061;-77
2022/10/05 07:12:18;;;;;;;6.32;3.53;;;14.00;99.90;;;;;;5011848;28;20037;-77
2022/10/05 07:15:06;;;;;;;7.63;4.53;;;14.10;99.90;;;;;;4995592;28;20043;-76
2022/10/05 07:17:44;;;;;;;5.57;3.85;;;14.10;99.90;;;;;;5009622;28;20029;-76
2022/10/05 07:20:52;;;;;;;6.53;3.60;;;14.10;99.90;;;;;;5012054;28;20041;-77
2022/10/05 07:23:27;;;;;;;6.13;4.07;;;14.20;99.90;;;;;;5004242;28;20045;-75
2022/10/05 07:26:07;;;;;;;9.05;4.25;;;14.20;99.70;;;;;;4998639;28;20122;-76
2022/10/05 07:29:11;;;;;;;5.70;3.25;;;14.20;99.60;;;;;;5003383;28;20038;-78
2022/10/05 07:32:00;;;;;;;8.32;3.58;;;14.30;99.60;;;;;;4995738;28;20038;-77
2022/10/05 07:34:51;;;;;;;5.45;3.50;;;14.30;99.50;;;;;;4997987;28;20113;-77
2022/10/05 07:37:55;;;;;;;6.93;3.53;;;14.30;99.50;;;;;;5005471;28;20113;-78
2022/10/05 07:40:36;;;;;;;4.90;3.58;;;14.30;99.50;;;;;;4995705;28;20033;-78
2022/10/05 07:43:36;;;;;;;7.03;3.60;;;14.40;99.60;;;;;;5006755;28;20030;-78
2022/10/05 07:46:31;;;;;;;6.95;3.40;;;14.40;99.50;;;;;;4999968;28;20029;-78
2022/10/05 07:49:24;;;;;;;10.38;3.47;;;14.50;99.50;;;;;;5004711;28;20020;-78
2022/10/05 07:52:04;;;;;;;6.18;3.30;;;14.60;99.50;;;;;;5002685;28;20026;-78
2022/10/05 07:54:56;;;;;;;7.60;3.85;;;14.70;99.40;;;;;;5010952;28;20121;-78
2022/10/05 07:57:51;;;;;;;4.82;2.67;;;14.80;99.30;;;;;;4994718;28;20053;-78
2022/10/05 08:00:27;;;;;;;8.65;3.97;;;14.90;99.30;;;;;;4994130;28;20077;-78
2022/10/05 08:03:15;;;;;;;7.15;4.13;;;14.90;99.20;;;;;;4999241;28;20033;-78
2022/10/05 08:05:42;;;;;;;4.25;3.05;;;15.00;99.00;;;;;;5005847;28;20122;-77
2022/10/05 08:08:23;;;;;;;5.88;3.35;;;15.10;99.10;;;;;;5022821;28;20034;-77
2022/10/05 08:11:07;;;;;;;5.03;3.10;;;15.20;99.20;;;;;;5021822;28;20021;-78
2022/10/05 08:14:07;;;;;;;6.82;3.20;;;15.30;99.00;;;;;;5005573;28;20103;-78
2022/10/05 08:16:37;;;;;;;8.48;3.60;;;15.40;98.90;;;;;;5013054;28;20045;-77
2022/10/05 08:19:40;;;;;;;5.38;3.05;;;15.50;98.90;;;;;;5010901;28;20116;-77
2022/10/05 08:22:11;;;;;;;6.13;2.80;;;15.50;98.90;;;;;;4985120;28;20022;-77
2022/10/05 08:24:50;;;;;;;4.45;2.90;;;15.60;98.70;;;;;;4990677;28;20126;-78
2022/10/05 08:27:20;;;;;;;6.50;3.45;;;15.70;98.50;;;;;;5009006;28;20049;-80
2022/10/05 08:29:51;;;;;;;5.25;3.03;;;15.80;98.60;;;;;;5005934;28;20035;-77
2022/10/05 08:32:28;;;;;;;5.10;3.20;;;15.90;98.40;;;;;;4996605;28;20050;-77
2022/10/05 08:35:17;;;;;;;4.45;2.90;;;16.00;98.40;;;;;;5007031;28;20430;-78
2022/10/05 08:37:45;;;;;;;6.45;3.33;;;16.10;98.30;;;;;;4989278;28;20058;-74
2022/10/05 08:40:29;;;;;;;5.80;3.00;;;16.20;98.50;;;;;;4994348;28;20573;-73
2022/10/05 08:43:17;;;;;;;4.22;2.70;;;16.20;98.10;;;;;;5012602;28;20120;-77
2022/10/05 08:45:48;;;;;;;6.40;3.20;;;16.30;97.90;;;;;;4998047;28;20041;-76
2022/10/05 08:48:38;;;;;;;6.82;3.42;;;16.30;97.80;;;;;;5001029;28;20022;-76
2022/10/05 08:51:44;;;;;;;5.50;3.25;;;16.40;97.70;;;;;;4997749;28;20033;-78
2022/10/05 08:54:23;;;;;;;6.65;3.45;;;16.40;97.70;;;;;;4998239;28;20038;-77
2022/10/05 08:57:10;;;;;;;6.70;3.53;;;16.50;97.60;;;;;;5006698;28;20098;-78
2022/10/05 09:00:04;;;;;;;7.70;3.50;;;16.60;97.40;;;;;;4992900;28;20080;-76
2022/10/05 09:02:43;;;;;;;6.10;3.70;;;16.60;97.30;;;;;;4982812;28;20030;-75
2022/10/05 09:05:09;;;;;;;5.53;3.40;;;16.70;97.20;;;;;;5003930;28;20049;-75
2022/10/05 09:08:02;;;;;;;5.65;3.28;;;16.80;97.20;;;;;;4995497;28;20396;-75
2022/10/05 09:11:04;;;;;;;5.45;3.17;;;16.80;97.00;;;;;;5006201;28;20029;-75
2022/10/05 09:13:39;;;;;;;8.15;4.20;;;16.90;97.10;;;;;;5002361;28;20079;-75
2022/10/05 09:16:22;;;;;;;6.47;3.40;;;17.00;97.00;;;;;;5003033;28;20068;-73
2022/10/05 09:19:05;;;;;;;4.53;3.05;;;17.00;97.00;;;;;;5011527;28;20034;-74
2022/10/05 09:21:55;;;;;;;7.45;3.35;;;17.10;97.00;;;;;;5008320;28;20053;-74
2022/10/05 09:24:35;;;;;;;6.90;3.67;;;17.20;97.00;;;;;;5001866;28;20077;-74
2022/10/05 09:27:16;;;;;;;6.13;3.05;;;17.20;96.90;;;;;;5003380;28;20085;-75
2022/10/05 09:30:00;;;;;;;7.65;3.85;;;17.30;96.90;;;;;;4997011;28;20125;-78
2022/10/05 09:32:47;;;;;;;5.97;3.30;;;17.40;96.80;;;;;;4996066;28;20030;-76
2022/10/05 09:35:35;;;;;;;4.60;3.00;;;17.40;96.70;;;;;;4997809;28;20520;-75
2022/10/05 09:38:07;;;;;;;5.18;3.40;;;17.50;96.40;;;;;;4997006;28;20030;-76
2022/10/05 09:40:54;;;;;;;3.70;2.65;;;17.50;96.20;;;;;;4981166;28;20054;-77
2022/10/05 09:43:44;;;;;;;6.18;3.75;;;17.60;96.30;;;;;;4989588;28;20024;-76
2022/10/05 09:46:33;;;;;;;5.28;3.33;;;17.70;96.00;;;;;;4991962;28;20038;-76
2022/10/05 09:49:28;;;;;;;4.82;3.20;;;17.70;95.80;;;;;;4998196;28;20030;-77
2022/10/05 09:52:10;;;;;;;5.78;3.78;;;17.80;95.80;;;;;;5003062;28;20064;-76
2022/10/05 09:55:08;;;;;;;5.47;3.45;;;17.90;95.70;;;;;;5000817;28;20034;-77
2022/10/05 09:58:11;;;;;;;5.43;3.05;;;17.90;95.70;;;;;;4994307;28;20043;-77
2022/10/05 10:00:59;;;;;;;7.43;3.40;;;18.00;95.60;;;;;;4992653;28;20030;-77
2022/10/05 10:03:43;;;;;;;6.03;3.20;;;18.00;95.50;;;;;;4998512;28;20105;-77
2022/10/05 10:06:23;;;;;;;6.43;3.22;;;18.10;95.50;;;;;;5006428;28;20049;-77
2022/10/05 10:09:06;;;;;;;7.50;3.50;;;18.10;95.40;;;;;;4996256;28;20503;-77
2022/10/05 10:11:47;;;;;;;8.48;3.63;;;18.10;95.30;;;;;;5003751;28;20030;-77
2022/10/05 10:14:47;;;;;;;4.63;2.97;;;18.10;95.30;;;;;;4992214;28;20082;-75
2022/10/05 10:17:53;;;;;;;5.50;3.50;;;18.10;95.20;;;;;;5003720;28;20112;-76
2022/10/05 10:20:25;;;;;;;5.28;2.78;;;18.10;95.20;;;;;;5011700;28;20112;-76
2022/10/05 10:23:26;;;;;;;5.93;3.22;;;18.00;95.10;;;;;;5007098;28;20398;-75
2022/10/05 10:26:10;;;;;;;8.07;3.17;;;18.00;95.10;;;;;;4995815;28;20575;-76
2022/10/05 10:29:12;;;;;;;7.68;4.32;;;18.00;95.20;;;;;;5002749;28;20040;-76
2022/10/05 10:32:08;;;;;;;5.65;3.53;;;17.90;95.20;;;;;;5015081;28;20041;-76
2022/10/05 10:34:42;;;;;;;8.55;3.50;;;17.90;95.20;;;;;;5011596;28;20358;-77
2022/10/05 10:37:37;;;;;;;7.70;3.15;;;17.90;95.30;;;;;;5000218;28;20042;-76
2022/10/05 10:40:36;;;;;;;6.93;3.33;;;17.80;95.40;;;;;;5003787;28;20393;-75
2022/10/05 10:43:27;;;;;;;7.13;3.40;;;17.80;95.40;;;;;;5008319;28;20069;-76
2022/10/05 10:46:04;;;;;;;7.07;3.75;;;17.80;95.50;;;;;;5014140;28;20513;-77
2022/10/05 10:48:39;;;;;;;5.13;3.50;;;17.80;95.50;;;;;;5008317;28;20045;-77
2022/10/05 10:51:05;;;;;;;6.03;3.65;;;17.90;95.50;;;;;;4996569;28;20429;-77
2022/10/05 10:53:51;;;;;;;7.05;3.95;;;17.90;95.40;;;;;;5012341;28;20069;-77
2022/10/05 10:56:17;;;;;;;5.90;3.55;;;17.90;95.40;;;;;;5000497;28;20516;-77
2022/10/05 10:58:58;;;;;;;7.38;3.60;;;17.90;95.40;;;;;;4995901;28;20037;-76
2022/10/05 11:02:02;;;;;;;4.50;3.30;;;17.80;95.40;;;;;;5004751;28;20556;-76
2022/10/05 11:04:50;;;;;;;7.20;3.25;;;17.80;95.40;;;;;;5013829;28;20042;-76
2022/10/05 11:08:02;;;;;;;9.65;3.70;;;17.90;95.50;;;;;;5006467;28;20489;-76
2022/10/05 11:10:45;;;;;;;6.13;3.72;;;17.90;95.60;;;;;;4948737;28;20049;-77
2022/10/05 11:13:15;;;;;;;7.28;3.80;;;17.90;95.60;;;;;;5009225;28;20489;-77
2022/10/05 11:16:09;;;;;;;7.40;3.78;;;17.90;95.60;;;;;;4998853;28;20057;-77
2022/10/05 11:18:43;;;;;;;5.47;3.85;;;17.90;95.70;;;;;;4995945;28;20410;-76
2022/10/05 11:21:25;;;;;;;5.85;4.07;;;18.00;95.70;;;;;;4997744;28;20037;-77
2022/10/05 11:24:18;;;;;;;8.60;3.80;;;18.00;95.80;;;;;;4995489;28;20489;-77
2022/10/05 11:27:03;;;;;;;4.25;3.17;;;18.10;95.90;;;;;;4995716;28;20026;-76
2022/10/05 11:29:48;;;;;;;;;;;18.20;95.90;;;;;;4995507;28;20553;-77
2022/10/05 11:32:51;;;;;;;4.30;3.28;;;18.20;96.00;;;;;;5007657;28;20020;-78
2022/10/05 11:35:46;;;;;;;4.90;3.13;;;18.30;95.90;;;;;;5009306;28;20172;-77
2022/10/05 11:38:20;;;;;;;7.72;3.53;;;18.40;95.90;;;;;;5008710;28;20049;-77
2022/10/05 11:41:03;;;;;;;6.10;3.22;;;18.50;95.90;;;;;;5010607;28;20117;-76
2022/10/05 11:43:50;;;;;;;8.82;4.00;;;18.60;95.80;;;;;;5006192;28;20034;-77
2022/10/05 11:46:36;;;;;;;5.53;3.70;;;18.70;95.80;;;;;;4995792;28;20034;-75
2022/10/05 11:49:12;;;;;;;5.75;3.90;;;18.70;95.70;;;;;;4989770;28;20453;-72
2022/10/05 11:52:05;;;;;;;4.25;3.08;;;18.90;95.60;;;;;;5012656;28;20038;-76
2022/10/05 11:55:04;;;;;;;5.00;2.85;;;18.90;95.60;;;;;;5001626;28;20053;-76
2022/10/05 11:57:41;;;;;;;6.32;3.30;;;19.00;95.40;;;;;;4959845;28;20047;-76
2022/10/05 12:00:12;;;;;;;6.78;3.72;;;19.00;95.30;;;;;;4973061;28;20049;-78
2022/10/05 12:03:15;;;;;;;5.40;3.50;;;19.10;95.30;;;;;;4963656;28;20039;-73
2022/10/05 12:06:05;;;;;;;5.13;3.78;;;19.10;95.40;;;;;;4970686;28;20027;-74
2022/10/05 12:08:47;;;;;;;5.93;3.33;;;19.20;95.30;;;;;;4970938;28;20034;-76
2022/10/05 12:11:53;;;;;;;6.15;3.60;;;19.20;95.50;;;;;;4968093;28;20031;-76
2022/10/05 12:14:25;;;;;;;5.78;3.40;;;19.30;95.50;;;;;;4957403;28;20063;-77
2022/10/05 12:17:19;;;;;;;5.75;3.58;;;19.30;95.50;;;;;;4973040;28;20026;-77
2022/10/05 12:19:54;;;;;;;6.07;3.40;;;19.40;95.40;;;;;;4972542;28;20066;-79
2022/10/05 12:22:25;;;;;;;6.55;3.90;;;19.40;95.30;;;;;;4972577;28;20069;-78
2022/10/05 12:25:16;;;;;;;4.75;3.63;;;19.50;95.30;;;;;;4973237;28;20118;-80
2022/10/05 12:27:45;;;;;;;5.40;3.67;;;19.60;95.10;;;;;;4967956;28;20030;-79
2022/10/05 12:30:14;;;;;;;6.05;3.33;;;19.60;95.10;;;;;;4968010;28;20097;-80
2022/10/05 12:33:00;;;;;;;4.47;3.20;;;19.70;95.00;;;;;;4970423;28;20460;-80
2022/10/05 12:35:41;;;;;;;4.70;2.88;;;19.70;95.00;;;;;;4971678;28;20026;-77
2022/10/05 12:38:20;;;;;;;6.72;2.88;;;19.70;94.70;;;;;;4968073;28;20102;-79
2022/10/05 12:41:06;;;;;;;4.80;3.42;;;19.80;94.70;;;;;;4968649;28;20038;-79
2022/10/05 12:44:14;;;;;;;4.68;2.83;;;19.80;94.70;;;;;;4971643;28;20069;-79
2022/10/05 12:46:45;;;;;;;4.35;2.33;;;19.80;94.40;;;;;;4967199;28;20030;-80
2022/10/05 12:49:43;;;;;;;5.28;2.63;;;19.80;94.10;;;;;;4968814;28;20043;-78
2022/10/05 12:52:28;;;;;;;7.43;2.78;;;19.80;94.00;;;;;;4975281;28;20038;-78
2022/10/05 12:55:08;;;;;;;4.75;2.85;;;19.80;93.80;;;;;;4976284;28;20031;-78
2022/10/05 12:58:01;;;;;;;3.40;2.83;;;19.80;93.70;;;;;;5003833;28;20034;-78
2022/10/05 13:00:31;;;;;;;5.75;2.92;;;19.90;93.80;;;;;;4983867;28;20456;-79
2022/10/05 13:03:11;;;;;;;6.35;3.05;;;20.00;93.70;;;;;;5004759;28;20034;-78
2022/10/05 13:05:46;;;;;;;4.07;2.60;;;20.00;93.50;;;;;;5003244;28;20027;-78
2022/10/05 13:08:16;;;;;;;5.00;2.70;;;20.00;93.50;;;;;;5012237;28;20038;-79
2022/10/05 13:10:50;;;;;;;3.80;2.70;;;20.10;93.40;;;;;;5006931;28;20023;-77
2022/10/05 13:13:28;;;;;;;3.97;2.80;;;20.10;93.30;;;;;;5006682;28;20124;-79
2022/10/05 13:16:08;;;;;;;6.75;3.10;;;20.10;93.20;;;;;;5011564;28;20100;-77
2022/10/05 13:19:06;;;;;;;5.47;3.15;;;20.10;93.20;;;;;;5013177;28;20041;-79
2022/10/05 13:21:55;;;;;;;5.43;3.00;;;20.10;93.20;;;;;;5003379;28;20026;-78
2022/10/05 13:24:23;;;;;;;5.00;3.20;;;20.10;93.00;;;;;;5016074;28;20033;-79
2022/10/05 13:26:54;;;;;;;4.70;2.50;;;20.20;93.00;;;;;;5009727;28;20036;-80
2022/10/05 13:29:29;;;;;;;3.85;2.40;;;20.20;93.00;;;;;;5005772;28;20030;-79
2022/10/05 13:32:04;;;;;;;5.15;2.58;;;20.20;92.70;;;;;;5017354;28;20038;-79
2022/10/05 13:34:48;;;;;;;4.45;2.75;;;20.30;92.80;;;;;;5020575;28;20034;-78
2022/10/05 13:37:42;;;;;;;5.57;2.60;;;20.30;92.70;;;;;;5019517;28;20042;-78
2022/10/05 13:40:27;;;;;;;5.85;2.45;;;20.40;92.60;;;;;;5017146;28;20042;-75
2022/10/05 13:43:02;;;;;;;3.45;2.15;;;20.40;92.50;;;;;;5014342;28;20029;-80
2022/10/05 13:45:48;;;;;;;4.70;2.50;;;20.40;92.40;;;;;;5002382;28;20029;-79
2022/10/05 13:48:22;;;;;;;;;;;20.50;92.70;;;;;;5029491;28;20030;-79
2022/10/05 13:51:07;;;;;;;3.35;2.38;;;20.50;92.80;;;;;;5010268;28;19913;-79
2022/10/05 13:53:45;;;;;;;3.95;2.53;;;20.60;92.30;;;;;;5025545;28;20036;-79
2022/10/05 13:56:21;;;;;;;5.13;2.30;;;20.70;92.30;;;;;;5024108;28;20049;-76
2022/10/05 13:58:50;;;;;;;5.30;2.42;;;20.70;92.20;;;;;;5029099;28;20078;-76
2022/10/05 14:01:37;;;;;;;3.17;2.45;;;20.70;92.20;;;;;;5010595;28;20029;-76
2022/10/05 14:04:33;;;;;;;8.65;3.33;;;20.70;92.00;;;;;;4995494;28;20096;-78
2022/10/05 14:07:20;;;;;;;4.18;2.83;;;20.80;91.80;;;;;;4986308;28;20030;-77
2022/10/05 14:09:47;;;;;;;3.80;2.60;;;20.80;91.80;;;;;;5002498;28;20045;-76
2022/10/05 14:12:19;;;;;;;7.45;2.65;;;20.90;91.60;;;;;;5013711;28;20033;-77